Time;durP1;ratioP1;P1;durP2;ratioP2;P2;SDS_P1;SDS_P2;PMS_P1;PMS_P2;Temp;Humidity;BMP_temperature;BMP_pressure;BME280_temperature;BME280_humidity;BME280_pressure;Samples;Min_cycle;Max_cycle;Signal;HPM_P1;HPM_P2
2022/03/16 00:00:10;;;;;;;34.45;8.63;;;13.90;99.90;;;;;;5066846;28;20100;-72
2022/03/16 00:02:37;;;;;;;32.60;8.88;;;13.90;99.90;;;;;;5053028;28;20036;-72
2022/03/16 00:05:04;;;;;;;32.65;7.53;;;13.80;99.90;;;;;;5067561;28;20048;-74
2022/03/16 00:07:31;;;;;;;34.63;8.70;;;13.90;99.90;;;;;;5066983;28;20028;-73
2022/03/16 00:09:57;;;;;;;32.70;7.75;;;13.80;99.90;;;;;;5080671;28;20488;-72
2022/03/16 00:12:23;;;;;;;36.35;9.25;;;13.80;99.90;;;;;;5080144;28;20419;-73
2022/03/16 00:14:49;;;;;;;34.75;8.52;;;13.80;99.90;;;;;;5060219;28;20044;-73
2022/03/16 00:17:16;;;;;;;37.15;8.75;;;13.80;99.90;;;;;;5062164;28;20037;-73
2022/03/16 00:19:43;;;;;;;27.63;7.63;;;13.80;99.90;;;;;;5074981;28;20618;-74
2022/03/16 00:22:10;;;;;;;26.38;8.05;;;13.80;99.90;;;;;;5061879;28;20448;-74
2022/03/16 00:24:36;;;;;;;34.63;8.35;;;13.80;99.90;;;;;;5079642;28;20499;-73
2022/03/16 00:27:02;;;;;;;31.50;9.02;;;13.80;99.90;;;;;;5074248;28;20028;-73
2022/03/16 00:29:28;;;;;;;34.65;8.88;;;13.80;99.90;;;;;;5048557;28;20160;-74
2022/03/16 00:31:54;;;;;;;35.33;8.68;;;13.80;99.90;;;;;;5077163;28;21620;-72
2022/03/16 00:34:20;;;;;;;34.40;8.52;;;13.80;99.90;;;;;;5078503;28;20408;-73
2022/03/16 00:36:46;;;;;;;32.22;8.98;;;13.80;99.90;;;;;;5062033;28;20101;-73
2022/03/16 00:39:12;;;;;;;30.40;8.00;;;13.80;99.90;;;;;;5061184;28;20040;-73
2022/03/16 00:41:38;;;;;;;34.22;7.80;;;13.70;99.90;;;;;;5073472;28;20032;-74
2022/03/16 00:44:05;;;;;;;30.77;8.80;;;13.80;99.90;;;;;;5060696;28;20345;-73
2022/03/16 00:46:31;;;;;;;43.45;8.75;;;13.80;99.90;;;;;;5060813;28;20036;-73
2022/03/16 00:48:58;;;;;;;29.75;7.97;;;13.80;99.90;;;;;;5076960;28;20028;-73
2022/03/16 00:51:23;;;;;;;35.15;9.23;;;13.80;99.90;;;;;;5076493;28;20043;-73
2022/03/16 00:53:49;;;;;;;28.48;7.95;;;13.70;99.90;;;;;;5063937;28;20045;-74
2022/03/16 00:56:15;;;;;;;32.63;8.77;;;13.70;99.90;;;;;;5076931;28;20036;-74
2022/03/16 00:58:41;;;;;;;32.53;7.53;;;13.70;99.90;;;;;;5049523;28;20460;-74
2022/03/16 01:01:08;;;;;;;27.90;7.80;;;13.70;99.90;;;;;;5023076;28;20073;-74
2022/03/16 01:03:35;;;;;;;28.42;7.43;;;13.80;99.90;;;;;;5032935;28;20372;-73
2022/03/16 01:06:02;;;;;;;32.83;7.75;;;13.70;99.90;;;;;;5063171;28;20511;-73
2022/03/16 01:08:29;;;;;;;29.63;6.97;;;13.70;99.90;;;;;;5046095;28;20043;-73
2022/03/16 01:10:55;;;;;;;26.13;7.25;;;13.80;99.90;;;;;;5056984;28;20051;-73
2022/03/16 01:13:21;;;;;;;27.10;6.82;;;13.80;99.90;;;;;;5051852;28;20060;-73
2022/03/16 01:15:47;;;;;;;26.45;7.43;;;13.80;99.90;;;;;;5057471;28;20040;-74
2022/03/16 01:18:13;;;;;;;27.65;7.65;;;13.80;99.90;;;;;;5038728;28;20036;-72
2022/03/16 01:20:39;;;;;;;28.38;7.35;;;13.80;99.90;;;;;;5072950;28;20044;-74
2022/03/16 01:23:05;;;;;;;37.80;8.23;;;13.80;99.90;;;;;;5057652;28;20063;-75
2022/03/16 01:25:30;;;;;;;30.35;8.40;;;13.70;99.90;;;;;;5072665;28;20102;-73
2022/03/16 01:27:56;;;;;;;31.65;8.32;;;13.70;99.90;;;;;;5055641;28;20037;-74
2022/03/16 01:30:25;;;;;;;43.65;9.15;;;13.70;99.90;;;;;;5033512;28;20132;-74
2022/03/16 01:32:51;;;;;;;39.17;9.25;;;13.70;99.90;;;;;;5059073;28;20094;-73
2022/03/16 01:35:16;;;;;;;36.38;8.55;;;13.70;99.90;;;;;;5038188;28;20045;-74
2022/03/16 01:37:45;;;;;;;32.70;9.60;;;13.60;99.90;;;;;;5057234;28;20132;-73
2022/03/16 01:40:11;;;;;;;43.63;10.63;;;13.60;99.90;;;;;;5038252;28;20044;-73
2022/03/16 01:42:37;;;;;;;37.78;10.30;;;13.60;99.90;;;;;;5063224;28;20047;-74
2022/03/16 01:45:03;;;;;;;43.15;10.77;;;13.60;99.90;;;;;;5049068;28;20049;-73
2022/03/16 01:47:29;;;;;;;42.42;10.07;;;13.60;99.90;;;;;;5059497;28;20041;-73
2022/03/16 01:49:55;;;;;;;50.10;11.05;;;13.60;99.90;;;;;;5053348;28;20680;-73
2022/03/16 01:52:23;;;;;;;50.70;11.77;;;13.60;99.90;;;;;;5056213;28;20037;-74
2022/03/16 01:54:50;;;;;;;51.60;11.75;;;13.50;99.90;;;;;;5072255;28;20051;-73
2022/03/16 01:57:17;;;;;;;40.42;11.10;;;13.50;99.90;;;;;;5058752;28;20083;-74
2022/03/16 01:59:44;;;;;;;43.72;10.68;;;13.50;99.90;;;;;;5063537;28;20035;-73
2022/03/16 02:02:10;;;;;;;45.42;10.40;;;13.40;99.90;;;;;;5051690;28;20128;-73
2022/03/16 02:04:36;;;;;;;56.53;11.30;;;13.40;99.90;;;;;;5060795;28;20052;-73
2022/03/16 02:07:03;;;;;;;43.20;10.70;;;13.50;99.90;;;;;;5046287;28;20040;-73
2022/03/16 02:09:30;;;;;;;42.85;11.43;;;13.40;99.90;;;;;;5042325;28;20136;-74
2022/03/16 02:11:56;;;;;;;50.78;10.80;;;13.40;99.90;;;;;;5055615;28;20070;-73
2022/03/16 02:14:22;;;;;;;49.78;12.57;;;13.40;99.90;;;;;;5037127;28;20039;-75
2022/03/16 02:16:49;;;;;;;45.58;11.38;;;13.40;99.90;;;;;;5057709;28;20044;-74
2022/03/16 02:19:15;;;;;;;41.20;10.98;;;13.40;99.90;;;;;;5071382;28;20485;-73
2022/03/16 02:21:45;;;;;;;44.70;11.32;;;13.40;99.90;;;;;;5049769;28;20453;-73
2022/03/16 02:24:11;;;;;;;56.95;11.27;;;13.40;99.90;;;;;;5057331;28;20044;-74
2022/03/16 02:26:37;;;;;;;54.35;11.63;;;13.40;99.90;;;;;;5046735;28;20422;-73
2022/03/16 02:29:03;;;;;;;42.03;10.55;;;13.40;99.90;;;;;;5074417;28;20525;-73
2022/03/16 02:31:29;;;;;;;53.40;10.68;;;13.40;99.90;;;;;;5037065;28;20024;-74
2022/03/16 02:33:55;;;;;;;44.97;11.23;;;13.50;99.90;;;;;;5075059;28;20097;-73
2022/03/16 02:36:22;;;;;;;54.88;12.48;;;13.40;99.90;;;;;;5071754;28;20032;-73
2022/03/16 02:38:48;;;;;;;44.33;9.93;;;13.40;99.90;;;;;;5059642;28;20037;-74
2022/03/16 02:41:14;;;;;;;41.47;10.10;;;13.50;99.90;;;;;;5049711;28;20044;-73
2022/03/16 02:43:40;;;;;;;46.10;11.57;;;13.50;99.90;;;;;;5056916;28;20044;-73
2022/03/16 02:46:06;;;;;;;47.53;10.35;;;13.50;99.90;;;;;;5059393;28;20693;-73
2022/03/16 02:48:32;;;;;;;42.30;9.65;;;13.50;99.90;;;;;;5072793;28;20103;-73
2022/03/16 02:50:59;;;;;;;34.15;10.15;;;13.50;99.90;;;;;;5062614;28;20098;-73
2022/03/16 02:53:25;;;;;;;44.67;11.95;;;13.50;99.90;;;;;;5070601;28;20443;-73
2022/03/16 02:55:51;;;;;;;46.58;10.43;;;13.50;99.90;;;;;;5074458;28;20055;-73
2022/03/16 02:58:18;;;;;;;44.85;10.35;;;13.50;99.90;;;;;;5075253;28;20036;-74
2022/03/16 03:00:45;;;;;;;48.88;9.75;;;13.40;99.90;;;;;;5060358;28;20043;-73
2022/03/16 03:03:11;;;;;;;42.92;10.05;;;13.40;99.90;;;;;;5056004;28;20442;-73
2022/03/16 03:05:37;;;;;;;41.15;9.63;;;13.50;99.90;;;;;;5062726;28;20085;-76
2022/03/16 03:08:03;;;;;;;42.88;11.32;;;13.50;99.90;;;;;;5052310;28;20064;-74
2022/03/16 03:10:29;;;;;;;42.70;10.60;;;13.40;99.90;;;;;;5057589;28;20056;-73
2022/03/16 03:12:55;;;;;;;40.47;10.02;;;13.50;99.90;;;;;;5060562;28;20025;-74
2022/03/16 03:15:21;;;;;;;44.92;11.52;;;13.40;99.90;;;;;;5057664;28;20361;-74
2022/03/16 03:17:47;;;;;;;44.90;10.20;;;13.50;99.90;;;;;;5037560;28;20045;-74
2022/03/16 03:20:13;;;;;;;39.63;10.38;;;13.40;99.90;;;;;;5039005;28;20135;-73
2022/03/16 03:22:40;;;;;;;38.30;9.50;;;13.40;99.90;;;;;;5049399;28;20044;-74
2022/03/16 03:25:10;;;;;;;50.22;10.35;;;13.40;99.90;;;;;;5057625;28;20066;-73
2022/03/16 03:27:36;;;;;;;43.55;9.80;;;13.40;99.90;;;;;;5023180;28;20099;-73
2022/03/16 03:30:03;;;;;;;43.85;9.60;;;13.40;99.90;;;;;;5055713;28;20064;-73
2022/03/16 03:32:29;;;;;;;38.95;9.63;;;13.40;99.90;;;;;;5057765;28;20124;-75
2022/03/16 03:34:56;;;;;;;43.13;9.45;;;13.30;99.90;;;;;;5061840;28;20068;-73
2022/03/16 03:37:25;;;;;;;43.08;9.65;;;13.40;99.90;;;;;;5052611;28;20119;-74
2022/03/16 03:39:52;;;;;;;36.88;10.10;;;13.40;99.90;;;;;;5052296;28;20044;-73
2022/03/16 03:42:18;;;;;;;39.20;9.27;;;13.40;99.90;;;;;;5057868;28;20040;-73
2022/03/16 03:44:44;;;;;;;47.30;9.57;;;13.40;99.90;;;;;;5050852;28;20121;-74
2022/03/16 03:47:10;;;;;;;44.20;9.40;;;13.40;99.90;;;;;;5060732;28;20174;-74
2022/03/16 03:49:41;;;;;;;39.78;10.00;;;13.40;99.90;;;;;;5055575;28;20048;-73
2022/03/16 03:52:08;;;;;;;37.70;9.23;;;13.40;99.90;;;;;;5062799;28;20047;-74
2022/03/16 03:54:35;;;;;;;36.15;9.75;;;13.40;99.90;;;;;;5080715;28;20170;-73
2022/03/16 03:57:01;;;;;;;38.45;9.35;;;13.40;99.90;;;;;;5062128;28;20040;-73
2022/03/16 03:59:27;;;;;;;34.92;9.40;;;13.40;99.90;;;;;;5061662;28;20043;-72
2022/03/16 04:01:53;;;;;;;36.47;9.23;;;13.40;99.90;;;;;;5064408;28;20032;-73
2022/03/16 04:04:19;;;;;;;35.08;9.88;;;13.40;99.90;;;;;;5062718;28;20036;-72
2022/03/16 04:06:46;;;;;;;45.20;10.05;;;13.40;99.90;;;;;;5064512;28;20032;-74
2022/03/16 04:09:12;;;;;;;33.05;9.48;;;13.50;99.90;;;;;;5082283;28;20028;-73
2022/03/16 04:11:38;;;;;;;44.92;9.77;;;13.40;99.90;;;;;;5065915;28;20711;-73
2022/03/16 04:14:05;;;;;;;40.10;9.70;;;13.50;99.90;;;;;;5059669;28;20041;-74
2022/03/16 04:16:32;;;;;;;42.50;9.18;;;13.50;99.90;;;;;;5066949;28;20029;-73
2022/03/16 04:18:58;;;;;;;36.42;9.20;;;13.40;99.90;;;;;;5061653;28;20063;-73
2022/03/16 04:21:24;;;;;;;33.90;8.98;;;13.40;99.90;;;;;;5059363;28;20043;-73
2022/03/16 04:23:50;;;;;;;36.40;9.00;;;13.40;99.90;;;;;;5061549;28;20040;-73
2022/03/16 04:26:17;;;;;;;42.33;10.05;;;13.40;99.90;;;;;;5077650;28;20039;-73
2022/03/16 04:28:43;;;;;;;38.67;10.13;;;13.40;99.90;;;;;;5080502;28;20133;-74
2022/03/16 04:31:09;;;;;;;36.72;9.95;;;13.40;99.90;;;;;;5058035;28;20445;-74
2022/03/16 04:33:37;;;;;;;42.28;10.15;;;13.40;99.90;;;;;;5082891;28;20066;-74
2022/03/16 04:36:03;;;;;;;42.17;9.63;;;13.40;99.90;;;;;;5061388;28;20052;-74
2022/03/16 04:38:29;;;;;;;40.20;10.32;;;13.40;99.90;;;;;;5057007;28;20488;-73
2022/03/16 04:40:55;;;;;;;43.22;10.73;;;13.40;99.90;;;;;;5063648;28;20060;-73
2022/03/16 04:43:21;;;;;;;40.80;10.88;;;13.40;99.90;;;;;;5058054;28;20040;-74
2022/03/16 04:45:47;;;;;;;42.30;9.95;;;13.40;99.90;;;;;;5074767;28;20055;-73
2022/03/16 04:48:13;;;;;;;34.15;10.65;;;13.40;99.90;;;;;;5063834;28;20387;-73
2022/03/16 04:50:39;;;;;;;44.42;11.02;;;13.40;99.90;;;;;;5058753;28;20119;-73
2022/03/16 04:53:05;;;;;;;46.30;11.60;;;13.40;99.90;;;;;;5069288;28;20032;-73
2022/03/16 04:55:32;;;;;;;41.28;10.20;;;13.40;99.90;;;;;;5048383;28;20115;-73
2022/03/16 04:58:00;;;;;;;43.55;11.57;;;13.40;99.90;;;;;;5057837;28;20056;-74
2022/03/16 05:00:26;;;;;;;45.58;10.90;;;13.40;99.90;;;;;;5056940;28;20054;-73
2022/03/16 05:02:52;;;;;;;48.17;11.57;;;13.40;99.90;;;;;;5074987;28;20041;-73
2022/03/16 05:05:17;;;;;;;46.00;11.30;;;13.40;99.90;;;;;;5063887;28;20146;-73
2022/03/16 05:07:43;;;;;;;40.72;11.57;;;13.40;99.90;;;;;;5055517;28;20044;-73
2022/03/16 05:10:09;;;;;;;37.60;9.93;;;13.40;99.90;;;;;;5043478;28;20040;-73
2022/03/16 05:12:43;;;;;;;44.75;10.60;;;13.40;99.90;;;;;;5075570;28;20051;-73
2022/03/16 05:15:20;;;;;;;46.22;11.18;;;13.40;99.90;;;;;;5045213;28;20032;-72
2022/03/16 05:17:46;;;;;;;34.50;10.00;;;13.40;99.90;;;;;;5077257;28;20480;-73
2022/03/16 05:20:14;;;;;;;45.03;10.60;;;13.40;99.90;;;;;;5075591;28;20040;-72
2022/03/16 05:22:53;;;;;;;43.85;11.10;;;13.40;99.90;;;;;;5077735;28;20082;-72
2022/03/16 05:25:21;;;;;;;34.10;9.23;;;13.40;99.90;;;;;;5068218;28;20407;-72
2022/03/16 05:27:47;;;;;;;37.17;9.27;;;13.40;99.90;;;;;;5075329;28;20105;-73
2022/03/16 05:30:13;;;;;;;33.85;8.75;;;13.50;99.90;;;;;;5058562;28;20543;-73
2022/03/16 05:32:41;;;;;;;32.88;9.63;;;13.50;99.90;;;;;;5074850;28;20047;-74
2022/03/16 05:35:11;;;;;;;32.90;9.98;;;13.40;99.90;;;;;;5058982;28;20051;-73
2022/03/16 05:37:37;;;;;;;33.58;9.45;;;13.40;99.90;;;;;;5078025;28;20342;-73
2022/03/16 05:40:05;;;;;;;31.23;8.85;;;13.40;99.90;;;;;;5074577;28;20045;-72
2022/03/16 05:42:30;;;;;;;31.00;8.98;;;13.40;99.90;;;;;;5069896;28;20517;-74
2022/03/16 05:44:56;;;;;;;32.65;9.65;;;13.40;99.90;;;;;;5054849;28;20403;-73
2022/03/16 05:47:23;;;;;;;28.90;8.20;;;13.40;99.90;;;;;;5053629;28;20045;-73
2022/03/16 05:49:56;;;;;;;30.13;8.88;;;13.50;99.90;;;;;;5073545;28;20040;-76
2022/03/16 05:52:22;;;;;;;;;;;13.40;99.90;;;;;;5072109;28;20068;-74
2022/03/16 05:54:49;;;;;;;30.20;7.85;;;13.40;99.90;;;;;;5078343;28;19911;-76
2022/03/16 05:57:15;;;;;;;24.73;8.38;;;13.40;99.90;;;;;;5074439;28;20559;-74
2022/03/16 05:59:42;;;;;;;25.83;7.40;;;13.40;99.90;;;;;;5073877;28;20400;-74
2022/03/16 06:02:09;;;;;;;25.58;8.00;;;13.40;99.90;;;;;;5071822;28;20039;-73
2022/03/16 06:04:36;;;;;;;25.67;8.05;;;13.40;99.90;;;;;;5074236;28;20093;-73
2022/03/16 06:07:04;;;;;;;29.52;8.60;;;13.40;99.90;;;;;;5074951;28;20174;-73
2022/03/16 06:09:29;;;;;;;24.95;7.13;;;13.40;99.90;;;;;;5060300;28;20036;-73
2022/03/16 06:11:55;;;;;;;27.63;7.47;;;13.40;99.90;;;;;;5076978;28;20038;-73
2022/03/16 06:14:21;;;;;;;30.27;7.57;;;13.40;99.90;;;;;;5056125;28;20590;-74
2022/03/16 06:16:48;;;;;;;29.35;7.50;;;13.40;99.90;;;;;;5047351;28;20032;-74
2022/03/16 06:19:14;;;;;;;30.73;7.53;;;13.40;99.90;;;;;;5050813;28;20052;-75
2022/03/16 06:21:40;;;;;;;23.17;8.23;;;13.40;99.90;;;;;;5056517;28;20025;-74
2022/03/16 06:24:06;;;;;;;18.42;6.85;;;13.40;99.90;;;;;;5053717;28;20602;-74
2022/03/16 06:26:32;;;;;;;22.10;6.38;;;13.40;99.90;;;;;;5056582;28;20142;-74
2022/03/16 06:29:00;;;;;;;27.33;6.82;;;13.40;99.90;;;;;;5028543;28;20037;-74
2022/03/16 06:31:26;;;;;;;24.15;6.93;;;13.40;99.90;;;;;;5045298;28;20044;-75
2022/03/16 06:33:52;;;;;;;23.55;7.13;;;13.40;99.90;;;;;;5045788;28;20111;-75
2022/03/16 06:36:18;;;;;;;33.47;7.20;;;13.50;99.90;;;;;;5053313;28;20083;-73
2022/03/16 06:38:44;;;;;;;26.85;7.32;;;13.40;99.90;;;;;;5054502;28;20033;-75
2022/03/16 06:41:11;;;;;;;26.83;7.07;;;13.40;99.90;;;;;;5054364;28;20036;-74
2022/03/16 06:43:36;;;;;;;31.25;6.88;;;13.40;99.90;;;;;;5057531;28;20037;-75
2022/03/16 06:46:02;;;;;;;21.35;7.15;;;13.50;99.90;;;;;;5065528;28;20041;-74
2022/03/16 06:48:28;;;;;;;22.08;6.45;;;13.50;99.90;;;;;;5050861;28;21017;-75
2022/03/16 06:50:54;;;;;;;22.77;6.65;;;13.50;99.90;;;;;;5055725;28;20035;-75
2022/03/16 06:53:20;;;;;;;25.02;6.75;;;13.50;99.90;;;;;;5054045;28;20071;-74
2022/03/16 06:55:46;;;;;;;29.73;7.30;;;13.60;99.90;;;;;;5048303;28;20064;-75
2022/03/16 06:58:12;;;;;;;23.70;7.53;;;13.60;99.90;;;;;;5050221;28;20025;-74
2022/03/16 07:00:38;;;;;;;28.80;7.95;;;13.60;99.90;;;;;;5034501;28;20901;-74
2022/03/16 07:03:05;;;;;;;31.17;7.47;;;13.60;99.90;;;;;;5071503;28;20149;-74
2022/03/16 07:05:33;;;;;;;29.25;7.50;;;13.60;99.90;;;;;;5057361;28;20103;-74
2022/03/16 07:08:01;;;;;;;32.85;8.55;;;13.60;99.90;;;;;;5066396;28;20099;-74
2022/03/16 07:10:28;;;;;;;32.70;7.93;;;13.60;99.90;;;;;;5058466;28;20067;-75
2022/03/16 07:12:54;;;;;;;28.80;6.95;;;13.60;99.90;;;;;;5057743;28;20139;-73
2022/03/16 07:15:20;;;;;;;23.27;7.07;;;13.70;99.90;;;;;;5057444;28;20124;-75
2022/03/16 07:17:46;;;;;;;27.95;7.78;;;13.70;99.90;;;;;;5031774;28;20045;-74
2022/03/16 07:20:12;;;;;;;33.58;7.18;;;13.70;99.90;;;;;;5059344;28;20539;-74
2022/03/16 07:22:39;;;;;;;27.48;7.60;;;13.70;99.90;;;;;;5069133;28;20434;-73
2022/03/16 07:25:09;;;;;;;31.10;8.82;;;13.70;99.90;;;;;;5061197;28;20048;-75
2022/03/16 07:27:37;;;;;;;24.95;7.10;;;13.70;99.90;;;;;;5046321;28;20054;-74
2022/03/16 07:30:08;;;;;;;34.15;7.55;;;13.70;99.90;;;;;;5058324;28;20032;-74
2022/03/16 07:32:39;;;;;;;28.45;7.38;;;13.70;99.90;;;;;;5051448;28;20036;-73
2022/03/16 07:35:06;;;;;;;26.33;7.78;;;13.70;99.90;;;;;;5055728;28;20109;-74
2022/03/16 07:37:32;;;;;;;29.55;7.70;;;13.70;99.90;;;;;;5048483;28;20055;-75
2022/03/16 07:39:58;;;;;;;26.80;7.20;;;13.70;99.90;;;;;;5041318;28;20486;-74
2022/03/16 07:42:24;;;;;;;21.20;7.07;;;13.70;99.90;;;;;;5046410;28;20123;-74
2022/03/16 07:44:51;;;;;;;20.60;6.72;;;13.70;99.90;;;;;;5044630;28;20079;-74
2022/03/16 07:47:17;;;;;;;24.65;6.47;;;13.70;99.90;;;;;;5030182;28;20037;-75
2022/03/16 07:49:43;;;;;;;19.27;6.85;;;13.70;99.90;;;;;;5069646;28;20033;-76
2022/03/16 07:52:09;;;;;;;24.30;6.70;;;13.70;99.90;;;;;;5040569;28;20776;-74
2022/03/16 07:54:35;;;;;;;21.08;7.00;;;13.60;99.90;;;;;;5071577;28;20033;-74
2022/03/16 07:57:01;;;;;;;30.65;7.82;;;13.60;99.90;;;;;;5077014;28;20036;-74
2022/03/16 07:59:27;;;;;;;21.85;6.72;;;13.70;99.90;;;;;;5055349;28;20068;-75
2022/03/16 08:01:53;;;;;;;24.38;7.00;;;13.60;99.90;;;;;;5055420;28;20045;-75
2022/03/16 08:04:19;;;;;;;19.00;5.85;;;13.60;99.90;;;;;;5044372;28;20479;-75
2022/03/16 08:06:45;;;;;;;19.00;6.40;;;13.60;99.90;;;;;;5054572;28;20128;-77
2022/03/16 08:09:10;;;;;;;19.50;6.30;;;13.60;99.90;;;;;;5057422;28;20029;-75
2022/03/16 08:11:37;;;;;;;22.70;6.88;;;13.60;99.90;;;;;;5042454;28;20114;-75
2022/03/16 08:14:03;;;;;;;23.73;6.43;;;13.60;99.90;;;;;;5059147;28;20395;-75
2022/03/16 08:16:28;;;;;;;18.80;6.35;;;13.60;99.90;;;;;;5058847;28;20040;-74
2022/03/16 08:18:54;;;;;;;20.92;6.35;;;13.60;99.90;;;;;;5057787;28;20515;-75
2022/03/16 08:21:20;;;;;;;24.45;6.03;;;13.60;99.90;;;;;;5042285;28;20513;-75
2022/03/16 08:23:46;;;;;;;19.00;5.57;;;13.70;99.90;;;;;;5046480;28;20045;-74
2022/03/16 08:26:12;;;;;;;15.57;4.65;;;13.70;99.90;;;;;;5043492;28;20055;-74
2022/03/16 08:28:39;;;;;;;12.98;5.13;;;13.80;99.90;;;;;;5052706;28;20629;-75
2022/03/16 08:31:07;;;;;;;16.30;5.35;;;13.90;99.90;;;;;;5050826;28;20123;-74
2022/03/16 08:33:33;;;;;;;19.08;4.88;;;13.90;99.90;;;;;;5056747;28;20025;-75
2022/03/16 08:36:01;;;;;;;21.00;5.55;;;14.00;99.90;;;;;;5040759;28;20043;-74
2022/03/16 08:38:30;;;;;;;16.77;4.70;;;14.00;99.90;;;;;;5052876;28;20120;-74
2022/03/16 08:40:57;;;;;;;12.68;4.63;;;14.00;99.90;;;;;;5061536;28;20129;-75
2022/03/16 08:43:23;;;;;;;16.33;4.93;;;14.10;99.90;;;;;;5044353;28;20082;-74
2022/03/16 08:45:48;;;;;;;18.33;5.25;;;14.10;99.90;;;;;;5061529;28;20147;-76
2022/03/16 08:48:15;;;;;;;19.33;5.75;;;14.10;99.90;;;;;;5070612;28;20052;-75
2022/03/16 08:50:41;;;;;;;15.07;5.45;;;14.10;99.90;;;;;;5059776;28;20487;-76
2022/03/16 08:53:07;;;;;;;16.10;4.85;;;14.20;99.90;;;;;;5052178;28;20044;-75
2022/03/16 08:55:32;;;;;;;13.93;4.95;;;14.20;99.90;;;;;;5057306;28;20483;-74
2022/03/16 08:57:58;;;;;;;19.67;5.93;;;14.20;99.90;;;;;;5055411;28;20044;-75
2022/03/16 09:00:24;;;;;;;14.57;5.68;;;14.30;99.90;;;;;;5055535;28;20043;-75
2022/03/16 09:02:50;;;;;;;23.17;6.13;;;14.30;99.90;;;;;;5060509;28;20063;-74
2022/03/16 09:05:17;;;;;;;20.05;5.35;;;14.40;99.90;;;;;;5054202;28;20524;-75
2022/03/16 09:07:43;;;;;;;18.65;5.93;;;14.40;99.90;;;;;;5055924;28;20046;-74
2022/03/16 09:10:09;;;;;;;15.30;5.40;;;14.50;99.90;;;;;;5053493;28;20097;-73
2022/03/16 09:12:37;;;;;;;16.77;5.65;;;14.50;99.90;;;;;;5060607;28;20032;-75
2022/03/16 09:15:05;;;;;;;22.33;5.70;;;14.60;99.90;;;;;;5076338;28;20067;-74
2022/03/16 09:17:33;;;;;;;20.95;5.28;;;14.60;99.90;;;;;;5075552;28;20094;-76
2022/03/16 09:19:59;;;;;;;18.27;5.90;;;14.50;99.90;;;;;;5074006;28;20028;-75
2022/03/16 09:22:25;;;;;;;16.92;5.03;;;14.50;99.90;;;;;;5060941;28;20387;-75
2022/03/16 09:24:51;;;;;;;27.33;5.80;;;14.50;99.90;;;;;;5057119;28;20044;-75
2022/03/16 09:27:19;;;;;;;16.23;5.57;;;14.40;99.90;;;;;;5052430;28;20033;-75
2022/03/16 09:29:46;;;;;;;19.90;5.78;;;14.50;99.90;;;;;;5037012;28;20037;-75
2022/03/16 09:32:13;;;;;;;14.80;5.85;;;14.50;99.90;;;;;;5053012;28;20056;-75
2022/03/16 09:34:40;;;;;;;16.10;4.85;;;14.50;99.90;;;;;;5061053;28;20028;-75
2022/03/16 09:37:08;;;;;;;16.83;5.72;;;14.50;99.90;;;;;;5055321;28;20033;-75
2022/03/16 09:39:35;;;;;;;19.65;5.95;;;14.60;99.90;;;;;;5055018;28;20507;-75
2022/03/16 09:42:03;;;;;;;17.13;5.68;;;14.60;99.90;;;;;;5056395;28;20056;-75
2022/03/16 09:44:30;;;;;;;21.40;5.55;;;14.60;99.90;;;;;;5072413;28;20047;-75
2022/03/16 09:46:57;;;;;;;19.98;5.90;;;14.60;99.90;;;;;;5061622;28;20043;-74
2022/03/16 09:49:24;;;;;;;22.13;6.28;;;14.60;99.90;;;;;;5074624;28;20131;-75
2022/03/16 09:51:51;;;;;;;15.65;5.35;;;14.60;99.90;;;;;;5058083;28;20039;-76
2022/03/16 09:54:17;;;;;;;17.23;5.95;;;14.60;99.90;;;;;;5079342;28;20464;-75
2022/03/16 09:56:45;;;;;;;19.25;5.82;;;14.60;99.90;;;;;;5055967;28;20110;-76
2022/03/16 09:59:11;;;;;;;20.65;6.10;;;14.60;99.90;;;;;;5046559;28;20047;-74
2022/03/16 10:01:37;;;;;;;19.90;6.05;;;14.70;99.90;;;;;;5031843;28;20422;-75
2022/03/16 10:04:06;;;;;;;22.95;6.78;;;14.70;99.90;;;;;;5056061;28;20048;-75
2022/03/16 10:06:40;;;;;;;23.35;6.40;;;14.70;99.90;;;;;;5062304;28;20089;-75
2022/03/16 10:15:12;;;;;;;25.85;6.60;;;14.70;99.90;;;;;;5062129;28;20063;-75
2022/03/16 10:17:45;;;;;;;26.38;6.45;;;14.60;99.90;;;;;;5053506;28;20087;-75
2022/03/16 10:20:11;;;;;;;24.50;6.32;;;14.70;99.90;;;;;;5050531;28;20311;-74
2022/03/16 10:22:41;;;;;;;25.45;6.68;;;14.70;99.90;;;;;;5058002;28;20470;-74
2022/03/16 10:25:08;;;;;;;25.92;7.25;;;14.60;99.90;;;;;;5033535;28;20140;-75
2022/03/16 10:27:38;;;;;;;26.85;6.78;;;14.70;99.90;;;;;;5060456;28;20476;-75
2022/03/16 10:30:07;;;;;;;23.48;6.47;;;14.70;99.90;;;;;;5059006;28;20148;-74
2022/03/16 10:32:33;;;;;;;28.90;7.38;;;14.70;99.90;;;;;;5047127;28;20140;-75
2022/03/16 10:35:05;;;;;;;28.27;6.95;;;14.70;99.90;;;;;;5050565;28;20521;-75
2022/03/16 10:37:34;;;;;;;28.52;7.50;;;14.70;99.90;;;;;;5054476;28;20047;-75
2022/03/16 10:40:02;;;;;;;24.55;7.47;;;14.80;99.90;;;;;;5059085;28;20124;-73
2022/03/16 10:48:22;;;;;;;22.38;6.70;;;14.80;99.90;;;;;;5054016;28;20054;-73
2022/03/16 10:50:56;;;;;;;28.38;7.72;;;14.80;99.90;;;;;;5054733;28;20041;-75
2022/03/16 10:53:29;;;;;;;24.80;7.15;;;14.80;99.90;;;;;;5048134;28;20041;-74
2022/03/16 10:55:59;;;;;;;26.25;7.00;;;14.70;99.90;;;;;;5052784;28;20063;-76
2022/03/16 10:58:26;;;;;;;21.73;7.25;;;14.70;99.90;;;;;;5065310;28;20036;-75
2022/03/16 11:00:53;;;;;;;32.08;7.97;;;14.80;99.90;;;;;;5056251;28;20045;-75
2022/03/16 11:03:22;;;;;;;25.50;6.93;;;14.80;99.90;;;;;;5053922;28;20563;-75
2022/03/16 11:05:49;;;;;;;27.48;6.82;;;14.80;99.90;;;;;;5049636;28;20091;-75
2022/03/16 11:08:19;;;;;;;27.33;7.10;;;14.90;99.90;;;;;;5059299;28;20519;-75
2022/03/16 11:10:46;;;;;;;31.73;7.60;;;14.90;99.90;;;;;;5037866;28;20049;-75
2022/03/16 11:13:32;;;;;;;26.60;6.95;;;14.90;99.90;;;;;;5053455;28;20105;-76
2022/03/16 11:15:59;;;;;;;30.45;7.78;;;14.90;99.90;;;;;;5055645;28;20059;-75
2022/03/16 11:18:26;;;;;;;23.05;6.68;;;15.00;99.90;;;;;;5031618;28;20036;-74
2022/03/16 11:21:08;;;;;;;27.27;7.53;;;14.90;99.90;;;;;;5072871;28;20041;-76
2022/03/16 11:26:54;;;;;;;;;;;15.00;99.90;;;;;;5072356;28;20043;-75
2022/03/16 11:29:56;;;;;;;28.10;6.80;;;15.00;99.90;;;;;;5060331;28;20015;-75
2022/03/16 11:32:22;;;;;;;30.23;6.63;;;14.90;99.90;;;;;;5069887;28;20040;-75
2022/03/16 11:34:59;;;;;;;20.75;5.40;;;15.00;99.90;;;;;;5058240;28;20710;-74
2022/03/16 11:37:45;;;;;;;18.80;5.40;;;14.90;99.90;;;;;;5057867;28;20032;-75
2022/03/16 11:40:20;;;;;;;14.25;4.65;;;14.80;99.90;;;;;;5047248;28;20154;-74
2022/03/16 11:43:05;;;;;;;14.55;4.85;;;14.80;99.90;;;;;;5060867;28;20047;-75
2022/03/16 11:45:41;;;;;;;13.43;3.85;;;14.70;99.90;;;;;;5053765;28;20097;-75
2022/03/16 11:48:33;;;;;;;14.75;4.72;;;14.60;99.90;;;;;;5037803;28;21947;-75
2022/03/16 11:51:14;;;;;;;11.57;4.35;;;14.60;99.90;;;;;;5041907;28;20050;-75
2022/03/16 11:53:58;;;;;;;18.52;4.18;;;14.60;99.90;;;;;;5035103;28;20053;-75
2022/03/16 11:56:43;;;;;;;19.50;4.95;;;14.70;99.90;;;;;;5061202;28;20175;-77
2022/03/16 11:59:18;;;;;;;16.88;4.53;;;14.70;99.90;;;;;;5049843;28;20119;-76
2022/03/16 12:01:58;;;;;;;15.82;4.60;;;14.80;99.90;;;;;;5048038;28;20502;-73
2022/03/16 12:04:55;;;;;;;18.95;4.75;;;14.90;99.90;;;;;;5051279;28;20044;-76
2022/03/16 12:07:22;;;;;;;18.70;4.80;;;15.00;99.90;;;;;;5053325;28;20041;-74
2022/03/16 12:09:54;;;;;;;19.17;5.18;;;14.90;99.90;;;;;;5046034;28;20067;-75
2022/03/16 12:15:37;;;;;;;22.58;5.70;;;14.80;99.90;;;;;;5047961;28;20094;-75
2022/03/16 12:18:11;;;;;;;22.50;5.88;;;14.80;99.90;;;;;;5044712;28;20072;-74
2022/03/16 12:20:40;;;;;;;20.92;5.57;;;14.80;99.90;;;;;;5059168;28;20078;-75
2022/03/16 12:23:14;;;;;;;21.40;6.35;;;14.80;99.90;;;;;;5065647;28;20138;-74
2022/03/16 12:25:42;;;;;;;22.40;6.15;;;14.90;99.90;;;;;;5070190;28;20067;-74
2022/03/16 12:31:11;;;;;;;28.30;6.90;;;15.00;99.90;;;;;;5064469;28;20048;-74
2022/03/16 12:33:42;;;;;;;30.27;7.28;;;15.00;99.90;;;;;;5050423;28;20047;-75
2022/03/16 12:36:13;;;;;;;32.83;7.50;;;15.00;99.90;;;;;;5059852;28;20628;-75
2022/03/16 12:38:46;;;;;;;32.28;7.38;;;15.00;99.90;;;;;;5069652;28;20119;-75
2022/03/16 12:44:01;;;;;;;34.88;8.63;;;15.00;99.90;;;;;;5051278;28;20082;-75
2022/03/16 12:46:36;;;;;;;24.17;7.15;;;15.00;99.90;;;;;;5043682;28;20048;-75
2022/03/16 12:49:06;;;;;;;28.48;7.03;;;15.00;99.90;;;;;;5044441;28;20148;-75
2022/03/16 12:51:44;;;;;;;31.13;7.93;;;14.90;99.90;;;;;;5040066;28;20396;-75
2022/03/16 12:54:26;;;;;;;31.27;7.03;;;14.80;99.90;;;;;;5059037;28;20047;-75
2022/03/16 12:57:03;;;;;;;31.63;7.95;;;14.90;99.90;;;;;;5046371;28;20033;-77
2022/03/16 12:59:37;;;;;;;36.92;8.05;;;14.80;99.90;;;;;;5051185;28;20116;-75
2022/03/16 13:02:07;;;;;;;36.17;8.20;;;14.80;99.90;;;;;;5038095;28;20033;-76